sensor_id;sensor_type;location;lat;lon;timestamp;P1;durP1;ratioP1;P2;durP2;ratioP2
42244;SDS011;27912;51.828;5.688;2023-04-25T00:02:24;12.55;;;2.15;;
42244;SDS011;27912;51.828;5.688;2023-04-25T00:04:50;13.68;;;2.55;;
42244;SDS011;27912;51.828;5.688;2023-04-25T00:07:15;8.65;;;1.83;;
42244;SDS011;27912;51.828;5.688;2023-04-25T00:09:41;11.55;;;2.15;;
42244;SDS011;27912;51.828;5.688;2023-04-25T00:12:07;16.05;;;3.42;;
42244;SDS011;27912;51.828;5.688;2023-04-25T00:14:32;9.75;;;2.60;;
42244;SDS011;27912;51.828;5.688;2023-04-25T00:16:59;12.30;;;2.75;;
42244;SDS011;27912;51.828;5.688;2023-04-25T00:19:25;12.20;;;3.10;;
42244;SDS011;27912;51.828;5.688;2023-04-25T00:21:53;11.48;;;2.47;;
42244;SDS011;27912;51.828;5.688;2023-04-25T00:24:21;13.55;;;3.72;;
42244;SDS011;27912;51.828;5.688;2023-04-25T00:26:47;14.38;;;3.00;;
42244;SDS011;27912;51.828;5.688;2023-04-25T00:29:12;11.48;;;3.25;;
42244;SDS011;27912;51.828;5.688;2023-04-25T00:31:38;11.93;;;3.22;;
42244;SDS011;27912;51.828;5.688;2023-04-25T00:34:03;12.43;;;3.08;;
42244;SDS011;27912;51.828;5.688;2023-04-25T00:36:31;8.40;;;2.80;;
42244;SDS011;27912;51.828;5.688;2023-04-25T00:38:56;15.23;;;3.78;;
42244;SDS011;27912;51.828;5.688;2023-04-25T00:41:22;17.00;;;3.88;;
42244;SDS011;27912;51.828;5.688;2023-04-25T00:43:48;12.80;;;3.15;;
42244;SDS011;27912;51.828;5.688;2023-04-25T00:46:15;8.90;;;2.92;;
42244;SDS011;27912;51.828;5.688;2023-04-25T00:48:40;14.63;;;4.07;;
42244;SDS011;27912;51.828;5.688;2023-04-25T00:51:06;16.63;;;3.83;;
42244;SDS011;27912;51.828;5.688;2023-04-25T00:53:31;16.95;;;4.10;;
42244;SDS011;27912;51.828;5.688;2023-04-25T00:55:57;7.63;;;2.75;;
42244;SDS011;27912;51.828;5.688;2023-04-25T00:58:23;12.27;;;3.33;;
42244;SDS011;27912;51.828;5.688;2023-04-25T01:00:50;14.90;;;3.90;;
42244;SDS011;27912;51.828;5.688;2023-04-25T01:03:17;16.08;;;3.45;;
42244;SDS011;27912;51.828;5.688;2023-04-25T01:05:44;11.60;;;3.28;;
42244;SDS011;27912;51.828;5.688;2023-04-25T01:08:10;14.70;;;3.88;;
42244;SDS011;27912;51.828;5.688;2023-04-25T01:10:36;12.75;;;3.28;;
42244;SDS011;27912;51.828;5.688;2023-04-25T01:13:02;14.52;;;2.83;;
42244;SDS011;27912;51.828;5.688;2023-04-25T01:15:28;12.73;;;3.38;;
42244;SDS011;27912;51.828;5.688;2023-04-25T01:17:53;19.08;;;4.40;;
42244;SDS011;27912;51.828;5.688;2023-04-25T01:20:20;12.45;;;3.65;;
42244;SDS011;27912;51.828;5.688;2023-04-25T01:22:47;14.85;;;3.63;;
42244;SDS011;27912;51.828;5.688;2023-04-25T01:25:14;16.02;;;4.90;;
42244;SDS011;27912;51.828;5.688;2023-04-25T01:27:40;15.05;;;3.83;;
42244;SDS011;27912;51.828;5.688;2023-04-25T01:30:06;17.50;;;4.45;;
42244;SDS011;27912;51.828;5.688;2023-04-25T01:32:32;22.67;;;4.25;;
42244;SDS011;27912;51.828;5.688;2023-04-25T01:35:07;15.68;;;3.47;;
42244;SDS011;27912;51.828;5.688;2023-04-25T01:37:36;15.15;;;4.32;;
42244;SDS011;27912;51.828;5.688;2023-04-25T01:40:02;18.80;;;4.57;;
42244;SDS011;27912;51.828;5.688;2023-04-25T01:42:30;20.27;;;5.20;;
42244;SDS011;27912;51.828;5.688;2023-04-25T01:44:56;16.50;;;4.30;;
42244;SDS011;27912;51.828;5.688;2023-04-25T01:47:22;12.88;;;4.85;;
42244;SDS011;27912;51.828;5.688;2023-04-25T01:49:47;21.40;;;4.97;;
42244;SDS011;27912;51.828;5.688;2023-04-25T01:52:13;17.80;;;4.55;;
42244;SDS011;27912;51.828;5.688;2023-04-25T01:54:38;20.55;;;4.78;;
42244;SDS011;27912;51.828;5.688;2023-04-25T01:57:09;22.13;;;4.22;;
42244;SDS011;27912;51.828;5.688;2023-04-25T01:59:35;16.38;;;4.57;;
42244;SDS011;27912;51.828;5.688;2023-04-25T02:02:01;16.52;;;3.83;;
42244;SDS011;27912;51.828;5.688;2023-04-25T02:04:28;14.68;;;4.20;;
42244;SDS011;27912;51.828;5.688;2023-04-25T02:06:55;19.80;;;4.95;;
42244;SDS011;27912;51.828;5.688;2023-04-25T02:09:20;16.40;;;4.55;;
42244;SDS011;27912;51.828;5.688;2023-04-25T02:11:46;20.73;;;4.60;;
42244;SDS011;27912;51.828;5.688;2023-04-25T02:14:11;21.33;;;4.82;;
42244;SDS011;27912;51.828;5.688;2023-04-25T02:16:37;30.65;;;5.68;;
42244;SDS011;27912;51.828;5.688;2023-04-25T02:19:04;16.85;;;4.25;;
42244;SDS011;27912;51.828;5.688;2023-04-25T02:21:30;21.58;;;4.85;;
42244;SDS011;27912;51.828;5.688;2023-04-25T02:23:56;19.70;;;4.63;;
42244;SDS011;27912;51.828;5.688;2023-04-25T02:26:21;17.50;;;4.43;;
42244;SDS011;27912;51.828;5.688;2023-04-25T02:28:48;21.40;;;4.13;;
42244;SDS011;27912;51.828;5.688;2023-04-25T02:31:14;22.38;;;4.32;;
42244;SDS011;27912;51.828;5.688;2023-04-25T02:33:40;21.88;;;4.85;;
42244;SDS011;27912;51.828;5.688;2023-04-25T02:36:06;17.15;;;4.28;;
42244;SDS011;27912;51.828;5.688;2023-04-25T02:38:32;20.42;;;4.72;;
42244;SDS011;27912;51.828;5.688;2023-04-25T02:40:58;25.98;;;5.47;;
42244;SDS011;27912;51.828;5.688;2023-04-25T02:43:23;22.90;;;5.25;;
42244;SDS011;27912;51.828;5.688;2023-04-25T02:45:49;25.25;;;4.78;;
42244;SDS011;27912;51.828;5.688;2023-04-25T02:48:15;25.48;;;4.35;;
42244;SDS011;27912;51.828;5.688;2023-04-25T02:50:40;26.33;;;4.57;;
42244;SDS011;27912;51.828;5.688;2023-04-25T02:53:06;18.02;;;4.95;;
42244;SDS011;27912;51.828;5.688;2023-04-25T02:55:31;20.38;;;5.50;;
42244;SDS011;27912;51.828;5.688;2023-04-25T02:57:57;18.95;;;4.90;;
42244;SDS011;27912;51.828;5.688;2023-04-25T03:00:22;17.63;;;5.50;;
42244;SDS011;27912;51.828;5.688;2023-04-25T03:02:48;24.60;;;5.25;;
42244;SDS011;27912;51.828;5.688;2023-04-25T03:05:13;23.20;;;4.95;;
42244;SDS011;27912;51.828;5.688;2023-04-25T03:07:39;25.48;;;4.70;;
42244;SDS011;27912;51.828;5.688;2023-04-25T03:10:06;22.40;;;5.22;;
42244;SDS011;27912;51.828;5.688;2023-04-25T03:12:32;21.20;;;4.82;;
42244;SDS011;27912;51.828;5.688;2023-04-25T03:14:57;15.98;;;4.80;;
42244;SDS011;27912;51.828;5.688;2023-04-25T03:17:23;23.20;;;5.18;;
42244;SDS011;27912;51.828;5.688;2023-04-25T03:19:48;23.60;;;6.07;;
42244;SDS011;27912;51.828;5.688;2023-04-25T03:22:14;18.17;;;4.97;;
42244;SDS011;27912;51.828;5.688;2023-04-25T03:24:40;19.40;;;4.95;;
42244;SDS011;27912;51.828;5.688;2023-04-25T03:27:05;17.70;;;5.00;;
42244;SDS011;27912;51.828;5.688;2023-04-25T03:29:31;21.35;;;5.28;;
42244;SDS011;27912;51.828;5.688;2023-04-25T03:31:56;20.48;;;5.30;;
42244;SDS011;27912;51.828;5.688;2023-04-25T03:34:22;25.08;;;5.50;;
42244;SDS011;27912;51.828;5.688;2023-04-25T03:36:48;16.80;;;4.78;;
42244;SDS011;27912;51.828;5.688;2023-04-25T03:39:14;17.17;;;5.63;;
42244;SDS011;27912;51.828;5.688;2023-04-25T03:41:40;17.60;;;5.68;;
42244;SDS011;27912;51.828;5.688;2023-04-25T03:44:05;14.68;;;4.10;;
42244;SDS011;27912;51.828;5.688;2023-04-25T03:46:31;22.63;;;5.43;;
42244;SDS011;27912;51.828;5.688;2023-04-25T03:48:57;21.85;;;4.97;;
42244;SDS011;27912;51.828;5.688;2023-04-25T03:51:22;20.45;;;5.15;;
42244;SDS011;27912;51.828;5.688;2023-04-25T03:53:48;21.50;;;4.95;;
42244;SDS011;27912;51.828;5.688;2023-04-25T03:56:13;18.73;;;6.00;;
42244;SDS011;27912;51.828;5.688;2023-04-25T03:58:39;20.55;;;6.60;;
42244;SDS011;27912;51.828;5.688;2023-04-25T04:01:04;16.00;;;5.07;;
42244;SDS011;27912;51.828;5.688;2023-04-25T04:03:33;17.25;;;4.28;;
42244;SDS011;27912;51.828;5.688;2023-04-25T04:06:00;19.73;;;5.50;;
42244;SDS011;27912;51.828;5.688;2023-04-25T04:08:25;37.05;;;6.82;;
42244;SDS011;27912;51.828;5.688;2023-04-25T04:10:51;18.10;;;4.88;;
42244;SDS011;27912;51.828;5.688;2023-04-25T04:13:16;23.08;;;6.13;;
42244;SDS011;27912;51.828;5.688;2023-04-25T04:15:42;21.35;;;5.38;;
42244;SDS011;27912;51.828;5.688;2023-04-25T04:18:07;24.58;;;6.65;;
42244;SDS011;27912;51.828;5.688;2023-04-25T04:20:33;22.65;;;6.22;;
42244;SDS011;27912;51.828;5.688;2023-04-25T04:22:58;19.38;;;6.07;;
42244;SDS011;27912;51.828;5.688;2023-04-25T04:25:24;22.13;;;6.50;;
42244;SDS011;27912;51.828;5.688;2023-04-25T04:27:50;21.65;;;5.60;;
42244;SDS011;27912;51.828;5.688;2023-04-25T04:30:19;22.90;;;6.68;;
42244;SDS011;27912;51.828;5.688;2023-04-25T04:32:46;25.60;;;6.95;;
42244;SDS011;27912;51.828;5.688;2023-04-25T04:35:13;19.92;;;6.70;;
42244;SDS011;27912;51.828;5.688;2023-04-25T04:37:39;23.50;;;7.18;;
42244;SDS011;27912;51.828;5.688;2023-04-25T04:40:05;27.55;;;6.68;;
42244;SDS011;27912;51.828;5.688;2023-04-25T04:42:31;24.83;;;6.53;;
42244;SDS011;27912;51.828;5.688;2023-04-25T04:44:57;21.48;;;6.35;;
42244;SDS011;27912;51.828;5.688;2023-04-25T04:47:23;19.42;;;5.68;;
42244;SDS011;27912;51.828;5.688;2023-04-25T04:49:50;15.68;;;6.00;;
42244;SDS011;27912;51.828;5.688;2023-04-25T04:52:16;19.17;;;5.72;;
42244;SDS011;27912;51.828;5.688;2023-04-25T04:54:41;29.52;;;6.43;;
42244;SDS011;27912;51.828;5.688;2023-04-25T04:57:07;23.13;;;6.65;;
42244;SDS011;27912;51.828;5.688;2023-04-25T04:59:32;23.27;;;6.57;;
42244;SDS011;27912;51.828;5.688;2023-04-25T05:01:58;21.10;;;5.88;;
42244;SDS011;27912;51.828;5.688;2023-04-25T05:04:23;16.83;;;6.03;;
42244;SDS011;27912;51.828;5.688;2023-04-25T05:06:49;18.02;;;4.93;;
42244;SDS011;27912;51.828;5.688;2023-04-25T05:09:14;24.40;;;6.55;;
42244;SDS011;27912;51.828;5.688;2023-04-25T05:11:40;13.52;;;4.43;;
42244;SDS011;27912;51.828;5.688;2023-04-25T05:14:06;15.65;;;4.55;;
42244;SDS011;27912;51.828;5.688;2023-04-25T05:16:31;16.48;;;4.78;;
42244;SDS011;27912;51.828;5.688;2023-04-25T05:18:56;17.48;;;4.20;;
42244;SDS011;27912;51.828;5.688;2023-04-25T05:21:22;19.33;;;4.70;;
42244;SDS011;27912;51.828;5.688;2023-04-25T05:23:48;10.48;;;3.50;;
42244;SDS011;27912;51.828;5.688;2023-04-25T05:26:13;19.85;;;4.30;;
42244;SDS011;27912;51.828;5.688;2023-04-25T05:28:39;16.52;;;5.00;;
42244;SDS011;27912;51.828;5.688;2023-04-25T05:31:06;22.02;;;4.10;;
42244;SDS011;27912;51.828;5.688;2023-04-25T05:33:31;12.55;;;3.78;;
42244;SDS011;27912;51.828;5.688;2023-04-25T05:35:57;13.35;;;4.10;;
42244;SDS011;27912;51.828;5.688;2023-04-25T05:38:22;10.95;;;3.00;;
42244;SDS011;27912;51.828;5.688;2023-04-25T05:40:48;20.00;;;3.78;;
42244;SDS011;27912;51.828;5.688;2023-04-25T05:43:14;11.90;;;3.05;;
42244;SDS011;27912;51.828;5.688;2023-04-25T05:45:39;13.90;;;3.30;;
42244;SDS011;27912;51.828;5.688;2023-04-25T05:48:05;15.63;;;2.60;;
42244;SDS011;27912;51.828;5.688;2023-04-25T05:50:31;8.65;;;2.17;;
42244;SDS011;27912;51.828;5.688;2023-04-25T05:52:56;10.73;;;2.22;;
42244;SDS011;27912;51.828;5.688;2023-04-25T05:55:22;9.38;;;2.10;;
42244;SDS011;27912;51.828;5.688;2023-04-25T05:57:47;9.73;;;2.20;;
42244;SDS011;27912;51.828;5.688;2023-04-25T06:00:13;11.77;;;1.67;;
42244;SDS011;27912;51.828;5.688;2023-04-25T06:02:40;13.23;;;1.77;;
42244;SDS011;27912;51.828;5.688;2023-04-25T06:05:06;7.68;;;1.20;;
42244;SDS011;27912;51.828;5.688;2023-04-25T06:07:32;12.98;;;1.25;;
42244;SDS011;27912;51.828;5.688;2023-04-25T06:09:58;9.93;;;1.00;;
42244;SDS011;27912;51.828;5.688;2023-04-25T06:12:25;10.68;;;1.20;;
42244;SDS011;27912;51.828;5.688;2023-04-25T06:14:50;10.43;;;1.38;;
42244;SDS011;27912;51.828;5.688;2023-04-25T06:17:16;14.02;;;1.48;;
42244;SDS011;27912;51.828;5.688;2023-04-25T06:19:41;9.50;;;1.98;;
42244;SDS011;27912;51.828;5.688;2023-04-25T06:22:07;10.73;;;1.10;;
42244;SDS011;27912;51.828;5.688;2023-04-25T06:24:33;12.63;;;1.38;;
42244;SDS011;27912;51.828;5.688;2023-04-25T06:26:58;9.70;;;1.02;;
42244;SDS011;27912;51.828;5.688;2023-04-25T06:29:24;9.05;;;1.20;;
42244;SDS011;27912;51.828;5.688;2023-04-25T06:31:50;4.30;;;0.73;;
42244;SDS011;27912;51.828;5.688;2023-04-25T06:34:16;11.07;;;1.05;;
42244;SDS011;27912;51.828;5.688;2023-04-25T06:36:42;7.43;;;0.90;;
42244;SDS011;27912;51.828;5.688;2023-04-25T06:39:09;7.25;;;1.38;;
42244;SDS011;27912;51.828;5.688;2023-04-25T06:41:34;16.30;;;2.30;;
42244;SDS011;27912;51.828;5.688;2023-04-25T06:44:00;10.63;;;1.13;;
42244;SDS011;27912;51.828;5.688;2023-04-25T06:46:26;8.98;;;0.95;;
42244;SDS011;27912;51.828;5.688;2023-04-25T06:48:51;11.18;;;1.20;;
42244;SDS011;27912;51.828;5.688;2023-04-25T06:51:17;4.95;;;1.45;;
42244;SDS011;27912;51.828;5.688;2023-04-25T06:53:43;6.32;;;0.80;;
42244;SDS011;27912;51.828;5.688;2023-04-25T06:56:08;12.60;;;0.95;;
42244;SDS011;27912;51.828;5.688;2023-04-25T06:58:34;7.25;;;0.88;;
42244;SDS011;27912;51.828;5.688;2023-04-25T07:00:59;9.63;;;0.90;;
42244;SDS011;27912;51.828;5.688;2023-04-25T07:03:25;7.90;;;0.60;;
42244;SDS011;27912;51.828;5.688;2023-04-25T07:05:51;10.35;;;1.35;;
42244;SDS011;27912;51.828;5.688;2023-04-25T07:08:16;15.70;;;1.25;;
42244;SDS011;27912;51.828;5.688;2023-04-25T07:10:44;11.45;;;1.35;;
42244;SDS011;27912;51.828;5.688;2023-04-25T07:13:11;5.63;;;0.70;;
42244;SDS011;27912;51.828;5.688;2023-04-25T07:15:37;6.53;;;0.80;;
42244;SDS011;27912;51.828;5.688;2023-04-25T07:18:02;10.65;;;1.02;;
42244;SDS011;27912;51.828;5.688;2023-04-25T07:20:28;9.32;;;0.70;;
42244;SDS011;27912;51.828;5.688;2023-04-25T07:22:55;10.25;;;0.73;;
42244;SDS011;27912;51.828;5.688;2023-04-25T07:25:21;7.38;;;0.77;;
42244;SDS011;27912;51.828;5.688;2023-04-25T07:27:47;7.93;;;0.95;;
42244;SDS011;27912;51.828;5.688;2023-04-25T07:30:13;9.63;;;0.60;;
42244;SDS011;27912;51.828;5.688;2023-04-25T07:32:39;13.88;;;1.52;;
42244;SDS011;27912;51.828;5.688;2023-04-25T07:35:05;7.47;;;0.90;;
42244;SDS011;27912;51.828;5.688;2023-04-25T07:37:32;13.55;;;1.80;;
42244;SDS011;27912;51.828;5.688;2023-04-25T07:39:58;9.38;;;0.70;;
42244;SDS011;27912;51.828;5.688;2023-04-25T07:42:23;7.90;;;0.50;;
42244;SDS011;27912;51.828;5.688;2023-04-25T07:44:49;8.48;;;0.70;;
42244;SDS011;27912;51.828;5.688;2023-04-25T07:47:16;7.57;;;0.90;;
42244;SDS011;27912;51.828;5.688;2023-04-25T07:49:43;6.40;;;0.50;;
42244;SDS011;27912;51.828;5.688;2023-04-25T07:52:10;7.22;;;0.75;;
42244;SDS011;27912;51.828;5.688;2023-04-25T07:54:35;9.23;;;0.52;;
42244;SDS011;27912;51.828;5.688;2023-04-25T07:57:01;9.85;;;0.63;;
42244;SDS011;27912;51.828;5.688;2023-04-25T07:59:27;7.28;;;0.80;;
42244;SDS011;27912;51.828;5.688;2023-04-25T08:01:53;8.00;;;0.55;;
42244;SDS011;27912;51.828;5.688;2023-04-25T08:04:18;7.35;;;0.70;;
42244;SDS011;27912;51.828;5.688;2023-04-25T08:06:44;9.50;;;0.50;;
42244;SDS011;27912;51.828;5.688;2023-04-25T08:09:10;8.10;;;1.08;;
42244;SDS011;27912;51.828;5.688;2023-04-25T08:11:36;11.75;;;0.57;;
42244;SDS011;27912;51.828;5.688;2023-04-25T08:14:01;10.85;;;0.68;;
42244;SDS011;27912;51.828;5.688;2023-04-25T08:16:27;8.45;;;0.60;;
42244;SDS011;27912;51.828;5.688;2023-04-25T08:18:53;7.28;;;0.90;;
42244;SDS011;27912;51.828;5.688;2023-04-25T08:21:19;9.20;;;0.70;;
42244;SDS011;27912;51.828;5.688;2023-04-25T08:23:45;9.77;;;1.67;;
42244;SDS011;27912;51.828;5.688;2023-04-25T08:26:10;8.25;;;0.50;;
42244;SDS011;27912;51.828;5.688;2023-04-25T08:28:36;7.80;;;0.63;;
42244;SDS011;27912;51.828;5.688;2023-04-25T08:31:02;9.25;;;0.43;;
42244;SDS011;27912;51.828;5.688;2023-04-25T08:33:27;3.17;;;0.38;;
42244;SDS011;27912;51.828;5.688;2023-04-25T08:35:53;8.85;;;0.50;;
42244;SDS011;27912;51.828;5.688;2023-04-25T08:38:19;7.80;;;0.70;;
42244;SDS011;27912;51.828;5.688;2023-04-25T08:40:44;6.25;;;0.82;;
42244;SDS011;27912;51.828;5.688;2023-04-25T08:43:15;7.68;;;0.80;;
42244;SDS011;27912;51.828;5.688;2023-04-25T08:45:43;7.47;;;0.47;;
42244;SDS011;27912;51.828;5.688;2023-04-25T08:48:13;7.53;;;0.45;;
42244;SDS011;27912;51.828;5.688;2023-04-25T08:50:50;3.72;;;0.30;;
42244;SDS011;27912;51.828;5.688;2023-04-25T08:53:28;8.45;;;0.57;;
42244;SDS011;27912;51.828;5.688;2023-04-25T08:55:57;2.78;;;0.30;;
42244;SDS011;27912;51.828;5.688;2023-04-25T08:58:23;5.47;;;0.50;;
42244;SDS011;27912;51.828;5.688;2023-04-25T09:00:49;3.97;;;0.32;;
42244;SDS011;27912;51.828;5.688;2023-04-25T09:03:16;8.10;;;0.30;;
42244;SDS011;27912;51.828;5.688;2023-04-25T09:05:42;4.53;;;0.40;;
42244;SDS011;27912;51.828;5.688;2023-04-25T09:08:08;4.60;;;0.50;;
42244;SDS011;27912;51.828;5.688;2023-04-25T09:10:34;6.60;;;0.40;;
42244;SDS011;27912;51.828;5.688;2023-04-25T09:13:10;5.85;;;0.50;;
42244;SDS011;27912;51.828;5.688;2023-04-25T09:15:49;4.05;;;0.40;;
42244;SDS011;27912;51.828;5.688;2023-04-25T09:18:29;4.57;;;0.40;;
42244;SDS011;27912;51.828;5.688;2023-04-25T09:21:09;3.40;;;0.30;;
42244;SDS011;27912;51.828;5.688;2023-04-25T09:23:46;2.60;;;0.30;;
42244;SDS011;27912;51.828;5.688;2023-04-25T09:26:17;2.80;;;0.40;;
42244;SDS011;27912;51.828;5.688;2023-04-25T09:28:44;2.63;;;0.25;;
42244;SDS011;27912;51.828;5.688;2023-04-25T09:31:10;6.50;;;0.38;;
42244;SDS011;27912;51.828;5.688;2023-04-25T09:33:36;4.97;;;0.75;;
42244;SDS011;27912;51.828;5.688;2023-04-25T09:36:07;5.38;;;0.40;;
42244;SDS011;27912;51.828;5.688;2023-04-25T09:38:41;4.70;;;0.32;;
42244;SDS011;27912;51.828;5.688;2023-04-25T09:41:09;4.07;;;0.30;;
42244;SDS011;27912;51.828;5.688;2023-04-25T09:43:35;4.05;;;0.30;;
42244;SDS011;27912;51.828;5.688;2023-04-25T09:46:02;2.65;;;0.47;;
42244;SDS011;27912;51.828;5.688;2023-04-25T09:48:32;6.78;;;0.50;;
42244;SDS011;27912;51.828;5.688;2023-04-25T09:51:08;8.00;;;0.60;;
42244;SDS011;27912;51.828;5.688;2023-04-25T09:53:42;2.72;;;0.30;;
42244;SDS011;27912;51.828;5.688;2023-04-25T09:56:11;6.30;;;0.30;;
42244;SDS011;27912;51.828;5.688;2023-04-25T09:58:38;7.35;;;0.30;;
42244;SDS011;27912;51.828;5.688;2023-04-25T10:01:05;6.35;;;0.65;;
42244;SDS011;27912;51.828;5.688;2023-04-25T10:03:41;3.75;;;0.40;;
42244;SDS011;27912;51.828;5.688;2023-04-25T10:06:09;6.30;;;0.40;;
42244;SDS011;27912;51.828;5.688;2023-04-25T10:08:39;6.00;;;0.38;;
42244;SDS011;27912;51.828;5.688;2023-04-25T10:11:06;3.22;;;0.50;;
42244;SDS011;27912;51.828;5.688;2023-04-25T10:13:33;5.07;;;0.22;;
42244;SDS011;27912;51.828;5.688;2023-04-25T10:16:01;1.98;;;0.30;;
42244;SDS011;27912;51.828;5.688;2023-04-25T10:18:28;8.32;;;0.50;;
42244;SDS011;27912;51.828;5.688;2023-04-25T10:20:55;5.28;;;0.40;;
42244;SDS011;27912;51.828;5.688;2023-04-25T10:23:22;2.38;;;0.52;;
42244;SDS011;27912;51.828;5.688;2023-04-25T10:25:52;1.60;;;0.20;;
42244;SDS011;27912;51.828;5.688;2023-04-25T10:28:18;2.35;;;0.20;;
42244;SDS011;27912;51.828;5.688;2023-04-25T10:33:33;3.83;;;0.30;;
42244;SDS011;27912;51.828;5.688;2023-04-25T10:36:12;4.18;;;0.20;;
42244;SDS011;27912;51.828;5.688;2023-04-25T10:38:38;4.32;;;0.65;;
42244;SDS011;27912;51.828;5.688;2023-04-25T10:41:05;2.85;;;0.22;;
42244;SDS011;27912;51.828;5.688;2023-04-25T10:46:27;4.55;;;0.30;;
42244;SDS011;27912;51.828;5.688;2023-04-25T10:48:57;4.75;;;0.30;;
42244;SDS011;27912;51.828;5.688;2023-04-25T10:51:27;5.57;;;0.40;;
42244;SDS011;27912;51.828;5.688;2023-04-25T10:56:21;4.00;;;0.40;;
42244;SDS011;27912;51.828;5.688;2023-04-25T10:58:47;4.82;;;0.65;;
42244;SDS011;27912;51.828;5.688;2023-04-25T11:01:14;4.10;;;0.30;;
42244;SDS011;27912;51.828;5.688;2023-04-25T11:03:44;3.50;;;0.40;;
42244;SDS011;27912;51.828;5.688;2023-04-25T11:06:22;3.08;;;0.40;;
42244;SDS011;27912;51.828;5.688;2023-04-25T11:08:54;4.30;;;0.40;;
42244;SDS011;27912;51.828;5.688;2023-04-25T11:11:20;3.92;;;0.40;;
42244;SDS011;27912;51.828;5.688;2023-04-25T11:13:49;6.30;;;0.50;;
42244;SDS011;27912;51.828;5.688;2023-04-25T11:16:16;3.15;;;0.30;;
42244;SDS011;27912;51.828;5.688;2023-04-25T11:18:42;4.68;;;0.30;;
42244;SDS011;27912;51.828;5.688;2023-04-25T11:21:09;4.80;;;0.40;;
42244;SDS011;27912;51.828;5.688;2023-04-25T11:23:35;7.65;;;0.52;;
42244;SDS011;27912;51.828;5.688;2023-04-25T11:26:01;6.80;;;0.63;;
42244;SDS011;27912;51.828;5.688;2023-04-25T11:28:28;4.28;;;0.30;;
42244;SDS011;27912;51.828;5.688;2023-04-25T11:30:53;5.82;;;0.32;;
42244;SDS011;27912;51.828;5.688;2023-04-25T11:33:22;4.72;;;0.40;;
42244;SDS011;27912;51.828;5.688;2023-04-25T11:35:49;3.22;;;0.43;;
42244;SDS011;27912;51.828;5.688;2023-04-25T11:38:14;3.15;;;0.30;;
42244;SDS011;27912;51.828;5.688;2023-04-25T11:40:40;3.22;;;0.30;;
42244;SDS011;27912;51.828;5.688;2023-04-25T11:43:06;2.47;;;0.25;;
42244;SDS011;27912;51.828;5.688;2023-04-25T11:45:32;3.28;;;0.30;;
42244;SDS011;27912;51.828;5.688;2023-04-25T11:47:57;5.30;;;0.40;;
42244;SDS011;27912;51.828;5.688;2023-04-25T11:50:23;2.42;;;0.30;;
42244;SDS011;27912;51.828;5.688;2023-04-25T11:52:48;4.15;;;0.30;;
42244;SDS011;27912;51.828;5.688;2023-04-25T11:55:18;5.60;;;0.30;;
42244;SDS011;27912;51.828;5.688;2023-04-25T11:57:46;5.63;;;0.40;;
42244;SDS011;27912;51.828;5.688;2023-04-25T12:00:17;4.55;;;0.40;;
42244;SDS011;27912;51.828;5.688;2023-04-25T12:02:52;4.82;;;0.40;;
42244;SDS011;27912;51.828;5.688;2023-04-25T12:05:18;5.95;;;0.63;;
42244;SDS011;27912;51.828;5.688;2023-04-25T12:07:45;3.47;;;0.30;;
42244;SDS011;27912;51.828;5.688;2023-04-25T12:10:12;4.93;;;0.40;;
42244;SDS011;27912;51.828;5.688;2023-04-25T12:12:44;5.85;;;0.40;;
42244;SDS011;27912;51.828;5.688;2023-04-25T12:15:12;3.25;;;0.30;;
42244;SDS011;27912;51.828;5.688;2023-04-25T12:17:47;1.58;;;0.30;;
42244;SDS011;27912;51.828;5.688;2023-04-25T12:20:15;5.50;;;0.38;;
42244;SDS011;27912;51.828;5.688;2023-04-25T12:22:46;6.35;;;0.47;;
42244;SDS011;27912;51.828;5.688;2023-04-25T12:25:14;4.05;;;0.40;;
42244;SDS011;27912;51.828;5.688;2023-04-25T12:28:19;5.13;;;0.40;;
42244;SDS011;27912;51.828;5.688;2023-04-25T12:30:52;3.42;;;0.30;;
42244;SDS011;27912;51.828;5.688;2023-04-25T12:33:17;3.38;;;0.95;;
42244;SDS011;27912;51.828;5.688;2023-04-25T12:35:43;5.30;;;0.40;;
42244;SDS011;27912;51.828;5.688;2023-04-25T12:38:08;6.63;;;0.38;;
42244;SDS011;27912;51.828;5.688;2023-04-25T12:40:34;5.93;;;0.32;;
42244;SDS011;27912;51.828;5.688;2023-04-25T12:43:00;2.70;;;0.40;;
42244;SDS011;27912;51.828;5.688;2023-04-25T12:45:25;4.38;;;0.65;;
42244;SDS011;27912;51.828;5.688;2023-04-25T12:47:51;3.63;;;0.38;;
42244;SDS011;27912;51.828;5.688;2023-04-25T12:50:16;2.85;;;0.38;;
42244;SDS011;27912;51.828;5.688;2023-04-25T12:52:42;3.38;;;0.30;;
42244;SDS011;27912;51.828;5.688;2023-04-25T12:55:07;4.72;;;0.75;;
42244;SDS011;27912;51.828;5.688;2023-04-25T12:57:33;3.50;;;0.40;;
42244;SDS011;27912;51.828;5.688;2023-04-25T12:59:59;3.50;;;0.20;;
42244;SDS011;27912;51.828;5.688;2023-04-25T13:02:24;4.38;;;0.38;;
42244;SDS011;27912;51.828;5.688;2023-04-25T13:04:50;5.00;;;0.30;;
42244;SDS011;27912;51.828;5.688;2023-04-25T13:07:16;2.35;;;0.22;;
42244;SDS011;27912;51.828;5.688;2023-04-25T13:09:41;2.17;;;0.20;;
42244;SDS011;27912;51.828;5.688;2023-04-25T13:12:07;1.95;;;0.20;;
42244;SDS011;27912;51.828;5.688;2023-04-25T13:14:33;3.45;;;0.38;;
42244;SDS011;27912;51.828;5.688;2023-04-25T13:16:58;2.28;;;0.40;;
42244;SDS011;27912;51.828;5.688;2023-04-25T13:19:24;2.78;;;0.25;;
42244;SDS011;27912;51.828;5.688;2023-04-25T13:21:50;2.45;;;0.25;;
42244;SDS011;27912;51.828;5.688;2023-04-25T13:24:16;4.70;;;0.30;;
42244;SDS011;27912;51.828;5.688;2023-04-25T13:26:41;6.78;;;0.35;;
42244;SDS011;27912;51.828;5.688;2023-04-25T13:29:07;8.90;;;0.30;;
42244;SDS011;27912;51.828;5.688;2023-04-25T13:31:32;3.42;;;0.20;;
42244;SDS011;27912;51.828;5.688;2023-04-25T13:33:58;4.25;;;0.40;;
42244;SDS011;27912;51.828;5.688;2023-04-25T13:36:24;4.32;;;0.30;;
42244;SDS011;27912;51.828;5.688;2023-04-25T13:38:49;2.92;;;0.30;;
42244;SDS011;27912;51.828;5.688;2023-04-25T13:41:15;2.88;;;0.75;;
42244;SDS011;27912;51.828;5.688;2023-04-25T13:43:43;5.18;;;0.40;;
42244;SDS011;27912;51.828;5.688;2023-04-25T13:46:10;2.83;;;0.25;;
42244;SDS011;27912;51.828;5.688;2023-04-25T13:48:37;3.42;;;0.30;;
42244;SDS011;27912;51.828;5.688;2023-04-25T13:51:03;2.88;;;0.22;;
42244;SDS011;27912;51.828;5.688;2023-04-25T13:53:28;4.88;;;0.43;;
42244;SDS011;27912;51.828;5.688;2023-04-25T13:55:54;1.85;;;0.30;;
42244;SDS011;27912;51.828;5.688;2023-04-25T13:58:20;6.68;;;0.45;;
42244;SDS011;27912;51.828;5.688;2023-04-25T14:00:45;3.17;;;0.30;;
42244;SDS011;27912;51.828;5.688;2023-04-25T14:03:11;2.40;;;0.30;;
42244;SDS011;27912;51.828;5.688;2023-04-25T14:05:37;2.75;;;0.40;;
42244;SDS011;27912;51.828;5.688;2023-04-25T14:08:03;2.05;;;0.20;;
42244;SDS011;27912;51.828;5.688;2023-04-25T14:10:33;3.15;;;0.35;;
42244;SDS011;27912;51.828;5.688;2023-04-25T14:13:00;2.85;;;0.30;;
42244;SDS011;27912;51.828;5.688;2023-04-25T14:15:27;3.58;;;0.40;;
42244;SDS011;27912;51.828;5.688;2023-04-25T14:17:53;4.63;;;0.52;;
42244;SDS011;27912;51.828;5.688;2023-04-25T14:20:19;3.08;;;0.30;;
42244;SDS011;27912;51.828;5.688;2023-04-25T14:22:46;2.80;;;0.20;;
42244;SDS011;27912;51.828;5.688;2023-04-25T14:25:11;3.60;;;0.32;;
42244;SDS011;27912;51.828;5.688;2023-04-25T14:27:37;2.95;;;0.20;;
42244;SDS011;27912;51.828;5.688;2023-04-25T14:30:03;2.83;;;0.30;;
42244;SDS011;27912;51.828;5.688;2023-04-25T14:32:29;4.75;;;0.30;;
42244;SDS011;27912;51.828;5.688;2023-04-25T14:34:56;2.80;;;0.30;;
42244;SDS011;27912;51.828;5.688;2023-04-25T14:37:22;2.78;;;0.32;;
42244;SDS011;27912;51.828;5.688;2023-04-25T14:39:48;7.60;;;0.50;;
42244;SDS011;27912;51.828;5.688;2023-04-25T14:42:13;3.60;;;0.25;;
42244;SDS011;27912;51.828;5.688;2023-04-25T14:44:39;3.60;;;0.30;;
42244;SDS011;27912;51.828;5.688;2023-04-25T14:47:04;2.33;;;0.30;;